createdAt,value
2018-01-06T00:02:10.292Z,2.17
2018-01-06T00:04:38.904Z,1.87
2018-01-06T00:07:07.530Z,2.60
2018-01-06T00:09:36.626Z,1.90
2018-01-06T00:12:05.809Z,2.67
2018-01-06T00:14:34.236Z,2.20
2018-01-06T00:17:02.572Z,2.00
2018-01-06T00:19:30.970Z,2.17
2018-01-06T00:22:00.067Z,2.00
2018-01-06T00:24:29.771Z,2.30
2018-01-06T00:26:58.898Z,2.20
2018-01-06T00:29:27.240Z,2.40
2018-01-06T00:31:56.356Z,2.40
2018-01-06T00:34:24.880Z,2.60
2018-01-06T00:36:53.237Z,3.00
2018-01-06T00:39:21.559Z,3.23
2018-01-06T00:41:49.904Z,3.00
2018-01-06T00:44:18.244Z,2.77
2018-01-06T00:46:46.586Z,3.47
2018-01-06T00:49:14.942Z,2.70
2018-01-06T00:51:43.301Z,3.17
2018-01-06T00:54:11.661Z,2.83
2018-01-06T00:56:40.836Z,3.30
2018-01-06T00:59:09.172Z,3.27
2018-01-06T01:01:37.543Z,3.20
2018-01-06T01:04:05.955Z,3.27
2018-01-06T01:06:35.624Z,3.43
2018-01-06T01:09:04.107Z,3.60
2018-01-06T01:11:32.457Z,4.23
2018-01-06T01:14:01.578Z,3.30
2018-01-06T01:16:29.932Z,4.00
2018-01-06T01:18:59.720Z,4.10
2018-01-06T01:21:28.039Z,3.87
2018-01-06T01:23:56.427Z,3.93
2018-01-06T01:26:24.816Z,3.93
2018-01-06T01:28:53.168Z,5.10
2018-01-06T01:31:22.310Z,4.60
2018-01-06T01:33:50.652Z,4.87
2018-01-06T01:36:19.761Z,4.40
2018-01-06T01:38:48.109Z,3.83
2018-01-06T01:41:17.263Z,4.87
2018-01-06T01:43:45.626Z,4.13
2018-01-06T01:46:13.967Z,4.13
2018-01-06T01:48:43.072Z,3.93
2018-01-06T01:51:12.272Z,3.40
2018-01-06T01:53:41.589Z,4.03
2018-01-06T01:56:09.951Z,3.73
2018-01-06T01:58:39.050Z,3.43
2018-01-06T02:01:07.387Z,2.83
2018-01-06T02:03:35.882Z,3.37
2018-01-06T02:06:04.250Z,3.50
2018-01-06T02:08:32.612Z,3.07
2018-01-06T02:11:00.944Z,2.87
2018-01-06T02:13:30.172Z,3.73
2018-01-06T02:15:58.512Z,3.37
2018-01-06T02:18:27.642Z,3.30
2018-01-06T02:20:56.016Z,3.30
2018-01-06T02:23:24.342Z,2.90
2018-01-06T02:25:52.725Z,2.70
2018-01-06T02:28:21.060Z,2.57
2018-01-06T02:30:49.407Z,2.80
2018-01-06T02:33:18.530Z,2.50
2018-01-06T02:35:47.008Z,3.37
2018-01-06T02:38:15.411Z,4.20
2018-01-06T02:40:43.749Z,2.93
2018-01-06T02:43:12.898Z,2.70
2018-01-06T02:45:41.253Z,2.50
2018-01-06T02:48:09.581Z,2.50
2018-01-06T02:50:37.931Z,2.33
2018-01-06T02:53:06.271Z,2.90
2018-01-06T02:55:34.719Z,2.73
2018-01-06T02:58:03.089Z,2.90
2018-01-06T03:00:31.509Z,2.50
2018-01-06T03:03:00.016Z,3.07
2018-01-06T03:05:28.348Z,2.73
2018-01-06T03:07:56.690Z,2.93
2018-01-06T03:10:25.039Z,2.70
2018-01-06T03:12:53.412Z,2.80
2018-01-06T03:15:21.868Z,3.00
2018-01-06T03:17:50.954Z,2.90
2018-01-06T03:20:20.112Z,2.97
2018-01-06T03:22:48.443Z,2.63
2018-01-06T03:25:18.007Z,2.47
2018-01-06T03:27:46.365Z,3.07
2018-01-06T03:30:14.752Z,2.70
2018-01-06T03:32:43.109Z,2.70
2018-01-06T03:35:11.459Z,3.00
2018-01-06T03:37:39.785Z,3.07
2018-01-06T03:40:09.060Z,2.77
2018-01-06T03:42:37.384Z,2.33
2018-01-06T03:45:05.799Z,2.73
2018-01-06T03:47:34.924Z,3.03
2018-01-06T03:50:03.304Z,3.27
2018-01-06T03:52:31.650Z,3.13
2018-01-06T03:55:00.069Z,2.93
2018-01-06T03:57:28.442Z,3.53
2018-01-06T03:59:56.771Z,2.83
2018-01-06T04:02:25.194Z,2.73
2018-01-06T04:04:53.535Z,3.13
2018-01-06T04:07:21.862Z,2.40
2018-01-06T04:09:50.237Z,2.90
2018-01-06T04:12:18.574Z,3.07
2018-01-06T04:14:47.020Z,3.40
2018-01-06T04:17:15.451Z,2.63
2018-01-06T04:19:44.542Z,3.13
2018-01-06T04:22:12.917Z,3.27
2018-01-06T04:24:41.234Z,2.97
2018-01-06T04:27:09.568Z,3.37
2018-01-06T04:29:37.905Z,2.67
2018-01-06T04:32:06.262Z,2.93
2018-01-06T04:34:34.647Z,3.17
2018-01-06T04:37:03.024Z,2.90
2018-01-06T04:39:31.423Z,3.60
2018-01-06T04:41:59.764Z,3.27
2018-01-06T04:44:28.100Z,3.17
2018-01-06T04:46:56.446Z,3.43
2018-01-06T04:49:24.779Z,3.30
2018-01-06T04:51:54.034Z,3.27
2018-01-06T04:54:22.372Z,3.40
2018-01-06T04:56:50.704Z,3.13
2018-01-06T04:59:19.131Z,4.10
2018-01-06T05:01:47.461Z,2.50
2018-01-06T05:04:16.737Z,3.30
2018-01-06T05:06:45.153Z,3.70
2018-01-06T05:09:13.465Z,2.67
2018-01-06T05:11:42.698Z,2.90
2018-01-06T05:14:11.029Z,3.23
2018-01-06T05:16:40.153Z,3.20
2018-01-06T05:19:08.502Z,2.87
2018-01-06T05:21:37.612Z,2.50
2018-01-06T05:24:06.020Z,3.17
2018-01-06T05:26:34.391Z,2.47
2018-01-06T05:29:02.760Z,2.70
2018-01-06T05:31:31.086Z,2.43
2018-01-06T05:33:59.428Z,2.33
2018-01-06T05:36:27.780Z,2.53
2018-01-06T05:38:56.871Z,2.97
2018-01-06T05:41:25.995Z,3.30
2018-01-06T05:43:54.360Z,3.20
2018-01-06T05:46:23.480Z,2.80
2018-01-06T05:48:51.819Z,3.33
2018-01-06T05:51:20.151Z,2.50
2018-01-06T05:53:48.492Z,3.13
2018-01-06T05:56:17.613Z,3.37
2018-01-06T05:58:46.126Z,3.80
2018-01-06T06:01:14.463Z,3.37
2018-01-06T06:03:42.824Z,3.20
2018-01-06T06:06:11.186Z,5.63
2018-01-06T06:08:39.539Z,3.30
2018-01-06T06:11:07.909Z,2.90
2018-01-06T06:13:36.284Z,3.13
2018-01-06T06:16:04.630Z,3.10
2018-01-06T06:18:32.975Z,2.60
2018-01-06T06:21:01.315Z,2.83
2018-01-06T06:23:29.659Z,2.97
2018-01-06T06:25:58.137Z,3.50
2018-01-06T06:28:27.229Z,3.00
2018-01-06T06:30:55.591Z,2.80
2018-01-06T06:33:24.036Z,2.47
2018-01-06T06:35:52.594Z,2.90
2018-01-06T06:38:21.659Z,2.80
2018-01-06T06:40:50.794Z,3.13
2018-01-06T06:43:19.242Z,3.00
2018-01-06T06:45:48.366Z,3.07
2018-01-06T06:48:16.710Z,2.40
2018-01-06T06:50:45.952Z,2.97
2018-01-06T06:53:14.316Z,2.90
2018-01-06T06:55:42.707Z,2.93
2018-01-06T06:58:11.056Z,3.10
2018-01-06T07:00:39.454Z,3.17
2018-01-06T07:03:07.819Z,2.80
2018-01-06T07:05:36.948Z,2.70
2018-01-06T07:08:05.282Z,3.67
2018-01-06T07:10:33.614Z,2.83
2018-01-06T07:13:01.972Z,2.63
2018-01-06T07:15:30.368Z,3.10
2018-01-06T07:17:58.764Z,3.37
2018-01-06T07:20:27.108Z,3.20
2018-01-06T07:22:55.442Z,3.73
2018-01-06T07:25:23.808Z,3.03
2018-01-06T07:27:52.144Z,3.53
2018-01-06T07:30:20.510Z,3.50
2018-01-06T07:32:49.609Z,3.40
2018-01-06T07:35:17.956Z,3.27
2018-01-06T07:37:46.495Z,3.07
2018-01-06T07:40:14.859Z,2.90
2018-01-06T07:42:43.294Z,3.30
2018-01-06T07:45:11.716Z,3.40
2018-01-06T07:47:40.153Z,3.73
2018-01-06T07:50:08.536Z,3.10
2018-01-06T07:52:36.867Z,2.87
2018-01-06T07:55:05.202Z,2.93
2018-01-06T07:57:34.453Z,3.43
2018-01-06T08:00:02.829Z,3.53
2018-01-06T08:02:31.171Z,3.17
2018-01-06T08:05:00.330Z,3.63
2018-01-06T08:07:28.671Z,4.00
2018-01-06T08:09:57.018Z,3.67
2018-01-06T08:12:26.154Z,3.13
2018-01-06T08:14:54.523Z,3.57
2018-01-06T08:17:22.988Z,4.10
2018-01-06T08:19:52.088Z,2.87
2018-01-06T08:22:20.446Z,4.00
2018-01-06T08:24:48.828Z,3.70
2018-01-06T08:27:17.936Z,3.30
2018-01-06T08:29:47.037Z,3.03
2018-01-06T08:32:15.437Z,3.77
2018-01-06T08:34:43.796Z,3.90
2018-01-06T08:37:12.297Z,3.53
2018-01-06T08:39:40.571Z,3.10
2018-01-06T08:42:08.927Z,3.83
2018-01-06T08:44:38.043Z,4.00
2018-01-06T08:47:06.392Z,4.57
2018-01-06T08:49:35.525Z,3.73
2018-01-06T08:52:03.856Z,3.70
2018-01-06T08:54:32.208Z,3.77
2018-01-06T08:57:00.542Z,4.07
2018-01-06T08:59:29.039Z,4.07
2018-01-06T09:01:57.424Z,4.60
2018-01-06T09:04:25.760Z,4.00
2018-01-06T09:06:54.112Z,4.73
2018-01-06T09:09:22.447Z,4.17
2018-01-06T09:11:50.783Z,4.10
2018-01-06T09:14:19.194Z,4.90
2018-01-06T09:16:48.287Z,4.57
2018-01-06T09:19:16.659Z,4.90
2018-01-06T09:21:45.802Z,4.30
2018-01-06T09:24:14.210Z,4.43
2018-01-06T09:26:42.601Z,5.73
2018-01-06T09:29:11.055Z,4.47
2018-01-06T09:31:39.436Z,4.50
2018-01-06T09:34:07.800Z,4.60
2018-01-06T09:36:36.257Z,4.57
2018-01-06T09:39:05.480Z,5.27
2018-01-06T09:41:33.888Z,5.70
2018-01-06T09:44:02.246Z,4.10
2018-01-06T09:46:30.580Z,4.50
2018-01-06T09:48:59.008Z,4.73
2018-01-06T09:51:27.383Z,4.43
2018-01-06T09:53:55.900Z,4.00
2018-01-06T09:56:24.263Z,4.03
2018-01-06T09:58:53.221Z,4.63
2018-01-06T10:01:21.600Z,3.87
2018-01-06T10:03:50.277Z,3.87
2018-01-06T10:06:18.839Z,4.77
2018-01-06T10:08:47.263Z,4.20
2018-01-06T10:11:15.636Z,4.13
2018-01-06T10:13:44.031Z,3.90
2018-01-06T10:16:12.643Z,4.27
2018-01-06T10:18:41.051Z,4.00
2018-01-06T10:21:10.286Z,3.50
2018-01-06T10:23:39.439Z,3.67
2018-01-06T10:26:08.564Z,4.27
2018-01-06T10:28:36.917Z,4.10
2018-01-06T10:31:05.420Z,3.70
2018-01-06T10:33:33.766Z,5.33
2018-01-06T10:36:02.905Z,3.87
2018-01-06T10:38:31.266Z,4.00
2018-01-06T10:41:00.399Z,4.10
2018-01-06T10:43:28.746Z,3.67
2018-01-06T10:45:57.085Z,3.60
2018-01-06T10:48:25.506Z,3.80
2018-01-06T10:50:53.860Z,3.97
2018-01-06T10:53:23.026Z,3.57
2018-01-06T10:55:51.396Z,3.60
2018-01-06T10:58:19.840Z,3.70
2018-01-06T11:00:53.891Z,4.10
2018-01-06T11:03:22.373Z,3.90
2018-01-06T11:05:50.782Z,4.10
2018-01-06T11:08:19.169Z,4.47
2018-01-06T11:10:48.307Z,3.70
2018-01-06T11:13:16.691Z,3.50
2018-01-06T11:15:45.042Z,3.40
2018-01-06T11:18:13.391Z,3.83
2018-01-06T11:20:41.824Z,3.07
2018-01-06T11:23:10.238Z,3.63
2018-01-06T11:25:38.561Z,2.90
2018-01-06T11:28:06.976Z,2.93
2018-01-06T11:30:35.335Z,2.90
2018-01-06T11:33:03.696Z,3.40
2018-01-06T11:35:32.852Z,2.50
2018-01-06T11:38:01.221Z,3.43
2018-01-06T11:40:29.606Z,3.17
2018-01-06T11:42:58.016Z,3.33
2018-01-06T11:45:26.346Z,3.40
2018-01-06T11:47:54.668Z,3.50
2018-01-06T11:50:23.814Z,3.07
2018-01-06T11:52:52.200Z,3.60
2018-01-06T11:55:20.628Z,3.20
2018-01-06T11:57:49.794Z,3.30
2018-01-06T12:00:18.182Z,3.53
2018-01-06T12:02:46.530Z,3.70
2018-01-06T12:05:15.168Z,3.70
2018-01-06T12:07:43.589Z,3.13
2018-01-06T12:10:11.927Z,3.40
2018-01-06T12:12:40.407Z,3.93
2018-01-06T12:15:08.827Z,3.50
2018-01-06T12:17:37.296Z,3.70
2018-01-06T12:20:05.693Z,3.67
2018-01-06T12:22:34.133Z,3.43
2018-01-06T12:25:02.440Z,3.90
2018-01-06T12:27:30.778Z,3.77
2018-01-06T12:29:59.233Z,3.90
2018-01-06T12:32:27.636Z,3.50
2018-01-06T12:34:56.077Z,4.10
2018-01-06T12:37:24.522Z,3.97
2018-01-06T12:39:53.654Z,3.53
2018-01-06T12:42:21.983Z,4.10
2018-01-06T12:44:51.172Z,3.97
2018-01-06T12:47:19.606Z,4.03
2018-01-06T12:49:47.950Z,4.23
2018-01-06T12:52:17.089Z,4.00
2018-01-06T12:54:45.452Z,4.13
2018-01-06T12:57:13.824Z,3.63
2018-01-06T12:59:42.154Z,4.03
2018-01-06T13:02:10.627Z,4.10
2018-01-06T13:04:39.036Z,4.10
2018-01-06T13:07:08.196Z,5.00
2018-01-06T13:09:36.651Z,4.70
2018-01-06T13:12:05.037Z,4.10
2018-01-06T13:14:33.528Z,4.70
2018-01-06T13:17:02.015Z,4.30
2018-01-06T13:19:30.364Z,4.40
2018-01-06T13:21:58.838Z,5.03
2018-01-06T13:24:27.236Z,5.27
2018-01-06T13:26:55.638Z,5.20
2018-01-06T13:29:23.974Z,6.23
2018-01-06T13:31:52.334Z,5.13
2018-01-06T13:34:21.459Z,6.50
2018-01-06T13:36:49.831Z,6.00
2018-01-06T13:39:18.230Z,5.77
2018-01-06T13:41:46.573Z,6.20
2018-01-06T13:44:15.796Z,5.80
2018-01-06T13:46:44.180Z,6.17
2018-01-06T13:49:12.510Z,7.33
2018-01-06T13:51:40.912Z,6.97
2018-01-06T13:54:10.055Z,7.27
2018-01-06T13:56:38.925Z,8.20
2018-01-06T13:59:07.260Z,7.30
2018-01-06T14:01:35.615Z,6.47
2018-01-06T14:04:03.968Z,7.43
2018-01-06T14:06:32.456Z,7.73
2018-01-06T14:09:01.090Z,7.67
2018-01-06T14:11:29.431Z,7.93
2018-01-06T14:13:57.867Z,8.70
2018-01-06T14:16:26.568Z,9.33
2018-01-06T14:18:55.165Z,8.53
2018-01-06T14:21:23.549Z,8.60
2018-01-06T14:23:52.455Z,8.73
2018-01-06T14:26:20.782Z,8.77
2018-01-06T14:28:49.810Z,9.93
2018-01-06T14:31:18.229Z,9.80
2018-01-06T14:33:46.607Z,10.20
2018-01-06T14:36:14.948Z,10.13
2018-01-06T14:38:43.528Z,9.93
2018-01-06T14:41:11.875Z,9.30
2018-01-06T14:43:41.006Z,9.70
2018-01-06T14:46:09.606Z,9.90
2018-01-06T14:48:37.949Z,9.63
2018-01-06T14:51:06.400Z,10.17
2018-01-06T14:53:34.745Z,10.17
2018-01-06T14:56:03.087Z,12.70
2018-01-06T14:58:31.504Z,9.93
2018-01-06T15:00:59.839Z,10.33
2018-01-06T15:03:28.179Z,10.10
2018-01-06T15:05:56.538Z,9.87
2018-01-06T15:08:25.033Z,11.10
2018-01-06T15:10:53.399Z,9.50
2018-01-06T15:13:21.772Z,10.30
2018-01-06T15:15:50.113Z,10.17
2018-01-06T15:18:18.564Z,10.37
2018-01-06T15:20:46.903Z,10.27
2018-01-06T15:23:15.276Z,10.90
2018-01-06T15:25:43.638Z,10.83
2018-01-06T15:28:11.996Z,9.63
2018-01-06T15:30:41.102Z,10.77
2018-01-06T15:33:10.385Z,10.53
2018-01-06T15:35:38.794Z,10.27
2018-01-06T15:38:07.155Z,10.53
2018-01-06T15:40:36.404Z,11.37
2018-01-06T15:43:04.737Z,9.90
2018-01-06T15:45:33.837Z,10.37
2018-01-06T15:48:02.954Z,9.50
2018-01-06T15:50:31.403Z,10.63
2018-01-06T15:53:00.526Z,11.93
2018-01-06T15:55:28.887Z,12.40
2018-01-06T15:57:57.997Z,13.47
2018-01-06T16:00:26.360Z,14.53
2018-01-06T16:02:55.498Z,14.53
2018-01-06T16:05:23.868Z,12.63
2018-01-06T16:07:52.207Z,12.80
2018-01-06T16:10:21.331Z,15.23
2018-01-06T16:12:49.716Z,15.20
2018-01-06T16:15:18.112Z,15.23
2018-01-06T16:17:46.475Z,13.93
2018-01-06T16:20:14.846Z,15.37
2018-01-06T16:22:43.308Z,14.57
2018-01-06T16:25:12.456Z,14.53
2018-01-06T16:27:40.807Z,14.43
2018-01-06T16:30:09.284Z,15.07
2018-01-06T16:32:37.835Z,15.60
2018-01-06T16:35:06.342Z,15.37
2018-01-06T16:37:34.705Z,14.43
2018-01-06T16:40:03.214Z,16.77
2018-01-06T16:42:31.892Z,15.13
2018-01-06T16:45:01.355Z,15.97
2018-01-06T16:47:30.525Z,16.33
2018-01-06T16:49:58.912Z,16.33
2018-01-06T16:52:28.223Z,21.57
2018-01-06T16:54:56.693Z,18.30
2018-01-06T16:57:25.028Z,17.33
2018-01-06T16:59:53.425Z,19.60
2018-01-06T17:02:21.854Z,17.30
2018-01-06T17:04:50.200Z,18.37
2018-01-06T17:07:18.548Z,17.60
2018-01-06T17:09:47.773Z,19.37
2018-01-06T17:12:16.143Z,19.80
2018-01-06T17:14:44.504Z,20.30
2018-01-06T17:17:13.183Z,20.50
2018-01-06T17:19:41.536Z,21.90
2018-01-06T17:22:09.880Z,21.00
2018-01-06T17:24:38.240Z,20.40
2018-01-06T17:27:06.682Z,22.07
2018-01-06T17:29:35.112Z,21.40
2018-01-06T17:32:03.496Z,20.87
2018-01-06T17:34:31.877Z,18.90
2018-01-06T17:37:00.262Z,19.13
2018-01-06T17:39:28.588Z,20.60
2018-01-06T17:41:57.719Z,21.47
2018-01-06T17:44:26.072Z,22.40
2018-01-06T17:46:55.098Z,21.80
2018-01-06T17:49:23.684Z,22.40
2018-01-06T17:51:52.530Z,21.63
2018-01-06T17:54:22.227Z,20.70
2018-01-06T17:56:50.640Z,22.50
2018-01-06T17:59:19.197Z,20.80
2018-01-06T18:01:48.058Z,22.13
2018-01-06T18:04:16.937Z,22.33
2018-01-06T18:06:45.624Z,22.00
2018-01-06T18:09:14.148Z,22.90
2018-01-06T18:11:42.595Z,22.17
2018-01-06T18:14:11.056Z,22.93
2018-01-06T18:16:39.759Z,20.77
2018-01-06T18:19:08.136Z,23.23
2018-01-06T18:21:36.476Z,22.20
2018-01-06T18:24:05.641Z,22.40
2018-01-06T18:26:33.986Z,22.97
2018-01-06T18:29:02.420Z,22.40
2018-01-06T18:31:30.814Z,21.40
2018-01-06T18:33:59.161Z,25.43
2018-01-06T18:36:27.544Z,28.70
2018-01-06T18:38:56.076Z,26.33
2018-01-06T18:41:24.420Z,23.87
2018-01-06T18:43:53.553Z,32.40
2018-01-06T18:46:22.757Z,25.23
2018-01-06T18:48:51.204Z,24.00
2018-01-06T18:51:19.667Z,22.53
2018-01-06T18:53:48.026Z,17.20
2018-01-06T18:56:16.438Z,14.33
2018-01-06T18:58:45.531Z,13.77
2018-01-06T19:01:14.771Z,12.13
2018-01-06T19:03:43.129Z,11.77
2018-01-06T19:06:11.646Z,10.83
2018-01-06T19:08:40.645Z,10.53
2018-01-06T19:11:09.013Z,11.30
2018-01-06T19:13:37.395Z,11.73
2018-01-06T19:16:06.107Z,14.60
2018-01-06T19:18:34.478Z,10.03
2018-01-06T19:21:02.858Z,8.37
2018-01-06T19:23:31.180Z,9.30
2018-01-06T19:26:00.337Z,8.50
2018-01-06T19:28:28.824Z,8.93
2018-01-06T19:30:57.524Z,8.97
2018-01-06T19:33:26.197Z,8.27
2018-01-06T19:35:54.960Z,7.70
2018-01-06T19:38:23.458Z,8.60
2018-01-06T19:40:51.819Z,8.53
2018-01-06T19:43:20.218Z,8.10
2018-01-06T19:45:48.572Z,8.53
2018-01-06T19:48:16.907Z,8.00
2018-01-06T19:50:46.040Z,6.90
2018-01-06T19:53:14.373Z,7.17
2018-01-06T19:55:42.806Z,6.80
2018-01-06T19:58:11.301Z,6.97
2018-01-06T20:00:39.627Z,7.20
2018-01-06T20:03:08.744Z,7.00
2018-01-06T20:05:37.167Z,7.00
2018-01-06T20:08:05.627Z,6.70
2018-01-06T20:10:34.021Z,9.33
2018-01-06T20:13:02.386Z,8.40
2018-01-06T20:15:30.734Z,7.70
2018-01-06T20:17:59.079Z,7.40
2018-01-06T20:20:27.463Z,7.17
2018-01-06T20:22:55.805Z,7.33
2018-01-06T20:25:24.193Z,7.10
2018-01-06T20:27:52.640Z,7.80
2018-01-06T20:30:21.858Z,7.37
2018-01-06T20:32:50.228Z,8.17
2018-01-06T20:35:18.610Z,7.93
2018-01-06T20:37:47.914Z,7.73
2018-01-06T20:40:17.089Z,7.43
2018-01-06T20:42:45.924Z,8.10
2018-01-06T20:45:14.315Z,8.07
2018-01-06T20:47:43.223Z,8.43
2018-01-06T20:50:12.894Z,8.13
2018-01-06T20:52:41.321Z,7.83
2018-01-06T20:55:10.433Z,9.00
2018-01-06T20:57:39.542Z,8.23
2018-01-06T21:00:07.890Z,8.30
2018-01-06T21:02:36.247Z,8.40
2018-01-06T21:05:04.593Z,8.07
2018-01-06T21:07:32.972Z,7.87
2018-01-06T21:10:03.852Z,8.03
2018-01-06T21:12:32.400Z,7.90
2018-01-06T21:15:00.748Z,7.63
2018-01-06T21:17:29.148Z,18.00
2018-01-06T21:19:57.507Z,14.00
2018-01-06T21:22:25.922Z,9.97
2018-01-06T21:24:55.065Z,8.60
2018-01-06T21:27:24.169Z,8.03
2018-01-06T21:29:53.325Z,8.10
2018-01-06T21:32:21.999Z,7.30
2018-01-06T21:34:51.290Z,5.77
2018-01-06T21:37:19.632Z,5.70
2018-01-06T21:39:48.162Z,3.90
2018-01-06T21:42:16.552Z,4.07
2018-01-06T21:44:44.895Z,3.73
2018-01-06T21:47:13.407Z,3.20
2018-01-06T21:49:41.763Z,3.40
2018-01-06T21:52:10.112Z,3.60
2018-01-06T21:54:38.456Z,3.30
2018-01-06T21:57:07.009Z,3.23
2018-01-06T21:59:35.414Z,3.50
2018-01-06T22:02:03.760Z,3.53
2018-01-06T22:04:32.108Z,3.60
2018-01-06T22:07:00.460Z,3.40
2018-01-06T22:09:28.823Z,3.60
2018-01-06T22:11:57.153Z,3.20
2018-01-06T22:14:26.409Z,3.87
2018-01-06T22:16:54.732Z,4.43
2018-01-06T22:19:23.829Z,4.93
2018-01-06T22:21:52.938Z,3.67
2018-01-06T22:24:21.322Z,3.37
2018-01-06T22:26:49.815Z,3.33
2018-01-06T22:29:18.122Z,3.40
2018-01-06T22:31:49.995Z,3.63
2018-01-06T22:34:18.667Z,3.47
2018-01-06T22:36:47.063Z,3.90
2018-01-06T22:39:15.457Z,4.97
2018-01-06T22:41:43.856Z,2.73
2018-01-06T22:44:14.066Z,2.60
2018-01-06T22:46:42.493Z,2.50
2018-01-06T22:49:10.924Z,2.50
2018-01-06T22:51:40.098Z,2.63
2018-01-06T22:54:08.547Z,2.60
2018-01-06T22:56:36.896Z,2.70
2018-01-06T22:59:06.015Z,2.73
2018-01-06T23:01:34.362Z,2.60
2018-01-06T23:04:03.476Z,2.87
2018-01-06T23:06:31.807Z,3.20
2018-01-06T23:09:00.141Z,3.30
2018-01-06T23:11:28.530Z,6.63
2018-01-06T23:13:56.836Z,4.43
2018-01-06T23:16:25.181Z,4.03
2018-01-06T23:18:53.524Z,3.63
2018-01-06T23:21:22.724Z,3.60
2018-01-06T23:23:51.860Z,3.97
2018-01-06T23:26:20.231Z,3.67
2018-01-06T23:28:48.603Z,3.83
2018-01-06T23:31:16.956Z,4.20
2018-01-06T23:33:46.115Z,3.93
2018-01-06T23:36:14.448Z,4.67
2018-01-06T23:38:42.794Z,3.90
2018-01-06T23:41:11.155Z,4.40
2018-01-06T23:43:39.521Z,4.13
2018-01-06T23:46:08.616Z,4.67
2018-01-06T23:48:37.339Z,5.33
2018-01-06T23:51:05.922Z,5.53
2018-01-06T23:53:34.321Z,6.17
2018-01-06T23:56:04.442Z,5.70
2018-01-06T23:58:33.213Z,5.07
